createdAt,value
2022-12-18T00:01:07.189Z,12.55
2022-12-18T00:03:37.192Z,15.82
2022-12-18T00:06:04.056Z,14.90
2022-12-18T00:08:30.501Z,13.73
2022-12-18T00:11:04.593Z,15.38
2022-12-18T00:13:33.849Z,14.70
2022-12-18T00:16:05.461Z,14.13
2022-12-18T00:18:32.600Z,13.18
2022-12-18T00:21:04.397Z,13.18
2022-12-18T00:23:32.366Z,16.88
2022-12-18T00:26:04.221Z,14.32
2022-12-18T00:28:30.831Z,13.95
2022-12-18T00:31:14.522Z,15.00
2022-12-18T00:33:41.277Z,18.20
2022-12-18T00:36:20.105Z,12.15
2022-12-18T00:38:47.418Z,12.05
2022-12-18T00:41:35.699Z,11.95
2022-12-18T00:44:03.011Z,12.35
2022-12-18T00:46:29.437Z,12.10
2022-12-18T00:48:55.937Z,13.93
2022-12-18T00:51:22.421Z,14.68
2022-12-18T00:53:48.814Z,12.70
2022-12-18T00:56:15.250Z,11.98
2022-12-18T00:58:41.615Z,11.57
2022-12-18T01:01:08.373Z,13.23
2022-12-18T01:03:34.951Z,12.23
2022-12-18T01:06:07.601Z,10.85
2022-12-18T01:08:34.394Z,9.75
2022-12-18T01:11:01.272Z,10.57
2022-12-18T01:13:28.576Z,12.57
2022-12-18T01:15:54.955Z,11.88
2022-12-18T01:18:21.305Z,14.27
2022-12-18T01:20:47.703Z,12.70
2022-12-18T01:23:14.168Z,12.60
2022-12-18T01:25:40.565Z,11.70
2022-12-18T01:28:06.918Z,12.77
2022-12-18T01:30:33.467Z,12.90
2022-12-18T01:32:59.922Z,15.93
2022-12-18T01:35:26.274Z,11.73
2022-12-18T01:37:56.152Z,11.23
2022-12-18T01:40:22.749Z,10.27
2022-12-18T01:42:58.046Z,10.30
2022-12-18T01:45:30.676Z,10.00
2022-12-18T01:48:09.598Z,14.80
2022-12-18T01:50:44.020Z,10.63
2022-12-18T01:55:54.394Z,7.03
2022-12-18T01:58:28.608Z,8.75
2022-12-18T02:00:55.994Z,9.25
2022-12-18T02:03:22.550Z,9.98
2022-12-18T02:06:01.853Z,10.52
2022-12-18T02:08:38.446Z,9.52
2022-12-18T02:11:11.916Z,9.40
2022-12-18T02:14:04.984Z,9.05
2022-12-18T02:16:44.809Z,10.23
2022-12-18T02:19:45.725Z,8.45
2022-12-18T02:22:50.123Z,8.73
2022-12-18T02:25:53.280Z,10.45
2022-12-18T02:28:24.535Z,9.35
2022-12-18T02:30:54.281Z,8.55
2022-12-18T02:33:22.436Z,8.02
2022-12-18T02:35:50.100Z,8.82
2022-12-18T02:38:17.700Z,8.50
2022-12-18T02:40:44.994Z,8.48
2022-12-18T02:43:15.950Z,8.63
2022-12-18T02:45:55.606Z,8.48
2022-12-18T02:48:30.087Z,9.13
2022-12-18T02:51:24.787Z,8.85
2022-12-18T02:53:59.064Z,8.05
2022-12-18T02:56:39.743Z,8.55
2022-12-18T02:59:19.848Z,11.20
2022-12-18T03:02:14.195Z,8.73
2022-12-18T03:04:48.446Z,7.95
2022-12-18T03:07:24.740Z,9.70
2022-12-18T03:09:52.760Z,9.45
2022-12-18T03:12:54.151Z,8.77
2022-12-18T03:15:36.078Z,7.55
2022-12-18T03:18:11.866Z,8.07
2022-12-18T03:20:42.426Z,7.50
2022-12-18T03:23:14.770Z,8.98
2022-12-18T03:25:45.012Z,8.88
2022-12-18T03:28:16.595Z,8.80
2022-12-18T03:30:45.383Z,8.18
2022-12-18T03:33:20.662Z,10.20
2022-12-18T03:35:47.550Z,8.10
2022-12-18T03:38:14.669Z,7.20
2022-12-18T03:40:43.840Z,7.85
2022-12-18T03:43:20.094Z,10.05
2022-12-18T03:46:00.297Z,9.30
2022-12-18T03:48:36.365Z,8.77
2022-12-18T03:51:10.047Z,10.25
2022-12-18T03:53:53.128Z,9.32
2022-12-18T03:56:22.482Z,8.73
2022-12-18T03:58:50.790Z,7.90
2022-12-18T04:03:49.138Z,6.65
2022-12-18T04:06:17.439Z,8.23
2022-12-18T04:11:10.738Z,6.13
2022-12-18T04:13:39.483Z,9.02
2022-12-18T04:16:06.970Z,8.18
2022-12-18T04:18:33.617Z,9.05
2022-12-18T04:20:59.961Z,8.10
2022-12-18T04:23:26.432Z,9.27
2022-12-18T04:25:52.792Z,8.50
2022-12-18T04:28:19.140Z,9.65
2022-12-18T04:30:46.019Z,10.10
2022-12-18T04:33:14.125Z,9.55
2022-12-18T04:35:41.636Z,9.10
2022-12-18T04:38:09.435Z,8.65
2022-12-18T04:40:36.559Z,8.32
2022-12-18T04:43:03.283Z,8.20
2022-12-18T04:45:31.598Z,9.07
2022-12-18T04:50:25.270Z,6.72
2022-12-18T04:52:51.815Z,8.15
2022-12-18T04:55:18.178Z,7.72
2022-12-18T04:57:44.615Z,9.38
2022-12-18T05:00:11.805Z,9.38
2022-12-18T05:02:38.303Z,10.13
2022-12-18T05:05:05.345Z,10.57
2022-12-18T05:07:31.718Z,9.50
2022-12-18T05:09:58.081Z,9.27
2022-12-18T05:12:24.735Z,8.00
2022-12-18T05:14:51.504Z,9.25
2022-12-18T05:17:18.289Z,9.40
2022-12-18T05:19:44.743Z,9.20
2022-12-18T05:22:11.160Z,8.50
2022-12-18T05:24:37.624Z,11.20
2022-12-18T05:27:04.322Z,9.93
2022-12-18T05:29:30.741Z,10.38
2022-12-18T05:31:57.225Z,7.28
2022-12-18T05:34:23.638Z,7.80
2022-12-18T05:36:49.962Z,8.48
2022-12-18T05:39:16.397Z,9.18
2022-12-18T05:41:42.811Z,8.15
2022-12-18T05:44:09.877Z,8.77
2022-12-18T05:46:37.314Z,8.30
2022-12-18T05:49:03.775Z,8.88
2022-12-18T05:51:30.185Z,8.32
2022-12-18T05:53:56.533Z,8.98
2022-12-18T05:56:23.745Z,9.02
2022-12-18T05:58:53.795Z,9.77
2022-12-18T06:01:24.400Z,7.75
2022-12-18T06:03:50.986Z,7.70
2022-12-18T06:06:20.759Z,7.93
2022-12-18T06:08:47.558Z,8.60
2022-12-18T06:11:16.830Z,7.47
2022-12-18T06:13:43.216Z,9.02
2022-12-18T06:16:09.637Z,7.45
2022-12-18T06:18:39.224Z,8.10
2022-12-18T06:21:05.804Z,7.90
2022-12-18T06:23:32.192Z,9.48
2022-12-18T06:25:58.904Z,8.68
2022-12-18T06:28:25.306Z,8.65
2022-12-18T06:30:51.942Z,8.70
2022-12-18T06:33:18.492Z,6.63
2022-12-18T06:35:44.857Z,7.22
2022-12-18T06:38:11.274Z,7.30
2022-12-18T06:40:39.829Z,7.97
2022-12-18T06:43:07.142Z,8.48
2022-12-18T06:45:33.722Z,7.55
2022-12-18T06:48:00.228Z,8.30
2022-12-18T06:50:26.660Z,8.60
2022-12-18T06:52:53.105Z,12.93
2022-12-18T06:55:19.498Z,9.57
2022-12-18T06:57:45.894Z,9.45
2022-12-18T07:00:12.571Z,8.05
2022-12-18T07:02:39.160Z,8.07
2022-12-18T07:05:10.452Z,7.57
2022-12-18T07:07:37.152Z,6.15
2022-12-18T07:10:03.890Z,3.67
2022-12-18T07:12:30.402Z,5.53
2022-12-18T07:14:56.777Z,6.05
2022-12-18T07:17:23.192Z,6.07
2022-12-18T07:19:49.639Z,6.90
2022-12-18T07:22:15.975Z,6.38
2022-12-18T07:24:42.302Z,5.40
2022-12-18T07:27:08.759Z,5.80
2022-12-18T07:29:36.636Z,6.43
2022-12-18T07:32:03.052Z,7.72
2022-12-18T07:34:29.590Z,6.57
2022-12-18T07:36:55.972Z,5.75
2022-12-18T07:39:22.450Z,8.43
2022-12-18T07:42:08.774Z,6.05
2022-12-18T07:44:35.159Z,7.93
2022-12-18T07:47:01.609Z,7.78
2022-12-18T07:49:28.748Z,7.25
2022-12-18T07:51:57.072Z,7.75
2022-12-18T07:54:24.514Z,12.40
2022-12-18T07:56:51.958Z,8.15
2022-12-18T07:59:18.917Z,7.88
2022-12-18T08:01:45.667Z,7.35
2022-12-18T08:04:13.450Z,7.20
2022-12-18T08:06:42.609Z,6.78
2022-12-18T08:09:12.749Z,8.30
2022-12-18T08:11:39.281Z,9.45
2022-12-18T08:14:05.657Z,8.55
2022-12-18T08:16:32.208Z,7.32
2022-12-18T08:18:58.698Z,7.78
2022-12-18T08:21:27.728Z,8.73
2022-12-18T08:23:56.163Z,7.07
2022-12-18T08:26:23.497Z,6.40
2022-12-18T08:28:51.483Z,8.23
2022-12-18T08:31:18.928Z,9.18
2022-12-18T08:33:45.456Z,7.72
2022-12-18T08:36:12.001Z,9.02
2022-12-18T08:38:38.401Z,7.07
2022-12-18T08:41:07.622Z,7.00
2022-12-18T08:43:53.165Z,4.97
2022-12-18T08:46:20.771Z,7.53
2022-12-18T08:48:47.685Z,6.28
2022-12-18T08:51:14.447Z,8.95
2022-12-18T08:53:41.153Z,7.03
2022-12-18T08:56:08.688Z,8.68
2022-12-18T08:58:35.144Z,8.93
2022-12-18T09:01:03.078Z,7.50
2022-12-18T09:03:29.792Z,7.07
2022-12-18T09:05:56.353Z,6.57
2022-12-18T09:08:22.920Z,6.45
2022-12-18T09:10:51.060Z,6.22
2022-12-18T09:13:18.255Z,5.82
2022-12-18T09:15:47.161Z,7.78
2022-12-18T09:18:15.497Z,6.72
2022-12-18T09:20:42.015Z,6.13
2022-12-18T09:23:10.013Z,8.35
2022-12-18T09:25:37.920Z,6.55
2022-12-18T09:28:17.287Z,6.88
2022-12-18T09:30:46.856Z,9.18
2022-12-18T09:33:13.591Z,8.00
2022-12-18T09:35:42.734Z,9.38
2022-12-18T09:38:13.288Z,7.70
2022-12-18T09:40:44.960Z,9.30
2022-12-18T09:43:30.972Z,10.13
2022-12-18T09:46:05.192Z,9.50
2022-12-18T09:48:35.550Z,9.40
2022-12-18T09:51:09.850Z,10.68
2022-12-18T09:53:40.995Z,7.28
2022-12-18T09:56:16.952Z,7.43
2022-12-18T09:58:54.066Z,8.55
2022-12-18T10:01:23.941Z,9.43
2022-12-18T10:03:51.858Z,7.03
2022-12-18T10:06:42.817Z,5.72
2022-12-18T10:09:18.719Z,6.35
2022-12-18T10:11:54.298Z,7.90
2022-12-18T10:14:41.669Z,5.38
2022-12-18T10:17:23.764Z,6.75
2022-12-18T10:19:53.591Z,5.78
2022-12-18T10:22:57.169Z,8.00
2022-12-18T10:25:34.755Z,6.43
2022-12-18T10:28:15.351Z,7.82
2022-12-18T10:30:43.117Z,6.00
2022-12-18T10:33:17.691Z,6.60
2022-12-18T10:35:45.255Z,5.85
2022-12-18T10:38:14.344Z,7.95
2022-12-18T10:40:53.094Z,6.68
2022-12-18T10:43:35.807Z,6.50
2022-12-18T10:46:03.869Z,7.53
2022-12-18T10:51:13.991Z,6.25
2022-12-18T10:53:42.743Z,7.65
2022-12-18T10:56:09.876Z,5.07
2022-12-18T10:58:38.732Z,6.65
2022-12-18T11:01:14.827Z,6.63
2022-12-18T11:03:46.680Z,6.53
2022-12-18T11:06:25.438Z,7.30
2022-12-18T11:09:07.860Z,6.93
2022-12-18T11:11:38.900Z,5.70
2022-12-18T11:14:09.196Z,6.32
2022-12-18T11:16:52.969Z,7.03
2022-12-18T11:19:38.787Z,6.18
2022-12-18T11:22:21.478Z,6.88
2022-12-18T11:25:30.124Z,6.10
2022-12-18T11:27:53.903Z,6.50
2022-12-18T11:30:31.470Z,7.93
2022-12-18T11:33:10.559Z,7.18
2022-12-18T11:36:03.750Z,7.43
2022-12-18T11:38:40.772Z,6.60
2022-12-18T11:41:50.376Z,6.47
2022-12-18T11:44:25.139Z,7.28
2022-12-18T11:46:58.683Z,6.43
2022-12-18T11:49:35.586Z,5.97
2022-12-18T11:52:10.171Z,7.90
2022-12-18T11:54:37.113Z,6.35
2022-12-18T11:57:35.906Z,6.95
2022-12-18T12:00:16.584Z,7.70
2022-12-18T12:03:23.395Z,8.30
2022-12-18T12:06:04.346Z,6.85
2022-12-18T12:09:05.988Z,8.30
2022-12-18T12:11:49.450Z,10.25
2022-12-18T12:14:33.740Z,8.65
2022-12-18T12:17:08.915Z,8.20
2022-12-18T12:20:07.571Z,6.72
2022-12-18T12:23:02.022Z,7.05
2022-12-18T12:25:58.200Z,6.97
2022-12-18T12:28:56.153Z,7.47
2022-12-18T12:31:50.420Z,8.52
2022-12-18T12:34:49.496Z,7.38
2022-12-18T12:37:49.785Z,7.32
2022-12-18T12:40:50.863Z,7.60
2022-12-18T12:43:20.638Z,8.10
2022-12-18T12:45:53.367Z,7.03
2022-12-18T12:48:34.086Z,6.60
2022-12-18T12:51:05.132Z,6.97
2022-12-18T12:53:36.754Z,5.43
2022-12-18T12:56:06.612Z,10.05
2022-12-18T12:58:55.562Z,8.82
2022-12-18T13:01:42.996Z,7.28
2022-12-18T13:04:22.817Z,7.15
2022-12-18T13:07:00.742Z,8.18
2022-12-18T13:09:34.528Z,8.32
2022-12-18T13:12:23.830Z,8.27
2022-12-18T13:14:50.411Z,6.72
2022-12-18T13:17:20.812Z,7.57
2022-12-18T13:19:52.020Z,7.82
2022-12-18T13:22:34.888Z,7.55
2022-12-18T13:25:01.668Z,6.85
2022-12-18T13:27:46.518Z,6.18
2022-12-18T13:30:32.561Z,6.68
2022-12-18T13:33:14.294Z,7.22
2022-12-18T13:35:51.868Z,7.55
2022-12-18T13:38:27.113Z,7.45
2022-12-18T13:41:01.151Z,7.15
2022-12-18T13:46:19.155Z,6.43
2022-12-18T13:48:57.021Z,7.65
2022-12-18T13:51:25.309Z,7.40
2022-12-18T13:53:55.267Z,8.30
2022-12-18T13:56:29.422Z,6.85
2022-12-18T13:59:17.604Z,7.30
2022-12-18T14:01:47.967Z,8.65
2022-12-18T14:04:22.750Z,7.25
2022-12-18T14:06:53.019Z,7.57
2022-12-18T14:09:26.044Z,6.70
2022-12-18T14:12:14.252Z,7.18
2022-12-18T14:14:44.214Z,7.88
2022-12-18T14:17:12.827Z,7.30
2022-12-18T14:19:43.622Z,9.82
2022-12-18T14:22:17.719Z,9.65
2022-12-18T14:29:47.291Z,8.77
2022-12-18T14:32:18.699Z,8.68
2022-12-18T14:34:55.395Z,9.73
2022-12-18T14:37:26.946Z,8.23
2022-12-18T14:39:58.953Z,7.35
2022-12-18T14:42:29.045Z,6.93
2022-12-18T14:45:39.085Z,7.75
2022-12-18T14:48:28.702Z,6.55
2022-12-18T14:51:04.471Z,7.22
2022-12-18T14:53:47.574Z,7.93
2022-12-18T14:56:28.896Z,8.13
2022-12-18T14:58:59.509Z,8.95
2022-12-18T15:01:27.544Z,7.75
2022-12-18T15:03:55.492Z,7.80
2022-12-18T15:06:28.546Z,7.00
2022-12-18T15:08:55.470Z,6.57
2022-12-18T15:11:48.272Z,7.43
2022-12-18T15:14:44.181Z,7.70
2022-12-18T15:17:22.870Z,6.30
2022-12-18T15:19:54.272Z,6.28
2022-12-18T15:22:33.972Z,6.38
2022-12-18T15:25:01.176Z,7.15
2022-12-18T15:27:29.610Z,7.90
2022-12-18T15:30:02.268Z,6.90
2022-12-18T15:32:28.717Z,5.72
2022-12-18T15:35:15.933Z,6.63
2022-12-18T15:37:43.450Z,6.65
2022-12-18T15:40:14.773Z,9.32
2022-12-18T15:43:03.177Z,7.35
2022-12-18T15:45:29.736Z,8.73
2022-12-18T15:47:56.276Z,8.18
2022-12-18T15:50:23.070Z,8.50
2022-12-18T15:52:52.118Z,6.78
2022-12-18T15:55:40.097Z,9.05
2022-12-18T15:58:08.204Z,8.45
2022-12-18T16:00:37.306Z,7.05
2022-12-18T16:03:04.952Z,8.25
2022-12-18T16:07:59.225Z,7.63
2022-12-18T16:10:27.167Z,7.68
2022-12-18T16:12:53.574Z,6.70
2022-12-18T16:15:24.452Z,7.05
2022-12-18T16:17:51.163Z,8.38
2022-12-18T16:20:22.314Z,8.20
2022-12-18T16:22:49.771Z,8.70
2022-12-18T16:25:22.519Z,9.48
2022-12-18T16:27:49.322Z,8.43
2022-12-18T16:30:19.331Z,8.25
2022-12-18T16:32:45.806Z,10.77
2022-12-18T16:35:14.648Z,7.85
2022-12-18T16:37:42.026Z,8.63
2022-12-18T16:40:11.220Z,8.23
2022-12-18T16:42:39.102Z,9.45
2022-12-18T16:45:06.936Z,8.43
2022-12-18T16:47:33.504Z,7.22
2022-12-18T16:49:59.950Z,9.15
2022-12-18T16:52:26.791Z,11.90
2022-12-18T16:54:53.222Z,8.50
2022-12-18T16:57:21.174Z,9.45
2022-12-18T16:59:51.148Z,12.15
2022-12-18T17:02:23.679Z,9.10
2022-12-18T17:04:53.324Z,8.05
2022-12-18T17:07:19.829Z,7.40
2022-12-18T17:09:46.204Z,9.25
2022-12-18T17:12:12.650Z,8.68
2022-12-18T17:14:39.152Z,12.77
2022-12-18T17:17:22.603Z,9.93
2022-12-18T17:19:50.342Z,9.65
2022-12-18T17:22:16.729Z,10.60
2022-12-18T17:24:43.119Z,10.00
2022-12-18T17:27:09.599Z,11.00
2022-12-18T17:29:36.139Z,11.80
2022-12-18T17:32:02.653Z,9.45
2022-12-18T17:34:30.022Z,13.95
2022-12-18T17:36:57.132Z,14.93
2022-12-18T17:39:23.619Z,14.35
2022-12-18T17:41:50.050Z,13.70
2022-12-18T17:44:17.479Z,10.45
2022-12-18T17:46:44.473Z,13.25
2022-12-18T17:49:11.562Z,14.32
2022-12-18T17:51:38.049Z,10.45
2022-12-18T17:54:05.354Z,12.70
2022-12-18T17:56:32.812Z,10.07
2022-12-18T17:58:59.863Z,12.07
2022-12-18T18:01:26.850Z,10.80
2022-12-18T18:03:55.990Z,10.35
2022-12-18T18:06:23.667Z,10.13
2022-12-18T18:08:50.672Z,11.77
2022-12-18T18:11:38.027Z,11.15
2022-12-18T18:14:10.939Z,12.38
2022-12-18T18:16:42.704Z,13.20
2022-12-18T18:19:15.180Z,12.20
2022-12-18T18:21:43.873Z,15.00
2022-12-18T18:24:12.931Z,13.30
2022-12-18T18:26:41.578Z,13.93
2022-12-18T18:29:09.262Z,10.93
2022-12-18T18:31:40.176Z,12.48
2022-12-18T18:34:08.273Z,11.98
2022-12-18T18:36:34.854Z,11.65
2022-12-18T18:39:02.189Z,10.15
2022-12-18T18:41:30.406Z,11.25
2022-12-18T18:43:58.244Z,10.38
2022-12-18T18:46:25.609Z,10.90
2022-12-18T18:48:52.146Z,11.73
2022-12-18T18:51:21.424Z,9.05
2022-12-18T18:53:50.354Z,9.23
2022-12-18T18:56:56.718Z,9.00
2022-12-18T18:59:06.757Z,8.50
2022-12-18T19:01:33.282Z,9.95
2022-12-18T19:04:01.155Z,9.15
2022-12-18T19:06:28.554Z,9.75
2022-12-18T19:08:57.023Z,8.90
2022-12-18T19:11:43.621Z,9.55
2022-12-18T19:14:12.449Z,8.82
2022-12-18T19:16:39.341Z,9.73
2022-12-18T19:19:06.390Z,10.60
2022-12-18T19:21:34.644Z,8.95
2022-12-18T19:24:01.619Z,9.30
2022-12-18T19:26:28.953Z,8.07
2022-12-18T19:29:08.291Z,9.90
2022-12-18T19:31:37.010Z,9.18
2022-12-18T19:34:07.765Z,8.30
2022-12-18T19:36:37.147Z,9.30
2022-12-18T19:39:12.634Z,10.50
2022-12-18T19:41:39.700Z,10.82
2022-12-18T19:44:08.266Z,8.55
2022-12-18T19:46:35.468Z,10.48
2022-12-18T19:49:02.352Z,8.55
2022-12-18T19:51:30.715Z,8.85
2022-12-18T19:56:29.384Z,8.57
2022-12-18T19:58:55.924Z,9.30
2022-12-18T20:01:24.924Z,8.63
2022-12-18T20:03:52.751Z,9.43
2022-12-18T20:06:32.922Z,10.35
2022-12-18T20:09:03.083Z,9.18
2022-12-18T20:11:30.733Z,9.15
2022-12-18T20:13:58.242Z,8.88
2022-12-18T20:16:24.746Z,8.25
2022-12-18T20:18:51.395Z,8.02
2022-12-18T20:21:18.808Z,9.25
2022-12-18T20:23:46.168Z,9.10
2022-12-18T20:26:12.952Z,9.10
2022-12-18T20:28:40.656Z,8.82
2022-12-18T20:31:08.380Z,7.63
2022-12-18T20:33:37.193Z,8.88
2022-12-18T20:36:06.266Z,10.60
2022-12-18T20:38:34.192Z,11.93
2022-12-18T20:41:02.498Z,10.55
2022-12-18T20:43:29.671Z,9.15
2022-12-18T20:46:06.795Z,9.82
2022-12-18T20:48:33.625Z,14.48
2022-12-18T20:51:02.098Z,16.70
2022-12-18T20:53:30.469Z,9.32
2022-12-18T20:55:56.890Z,10.50
2022-12-18T20:58:23.366Z,9.25
2022-12-18T21:00:50.183Z,9.52
2022-12-18T21:03:17.799Z,9.27
2022-12-18T21:05:44.240Z,8.80
2022-12-18T21:08:10.712Z,8.38
2022-12-18T21:10:39.182Z,8.35
2022-12-18T21:13:07.282Z,9.02
2022-12-18T21:15:35.926Z,8.18
2022-12-18T21:18:02.306Z,9.32
2022-12-18T21:20:28.694Z,9.20
2022-12-18T21:22:55.541Z,7.57
2022-12-18T21:25:33.008Z,8.55
2022-12-18T21:27:59.351Z,7.90
2022-12-18T21:30:26.017Z,8.02
2022-12-18T21:32:52.425Z,7.43
2022-12-18T21:35:18.768Z,8.48
2022-12-18T21:40:13.803Z,7.88
2022-12-18T21:42:58.690Z,6.95
2022-12-18T21:45:25.052Z,7.47
2022-12-18T21:47:51.474Z,7.35
2022-12-18T21:50:17.957Z,7.53
2022-12-18T21:52:44.436Z,7.35
2022-12-18T21:55:10.836Z,7.68
2022-12-18T21:57:39.990Z,6.90
2022-12-18T22:00:10.647Z,8.63
2022-12-18T22:02:43.420Z,7.13
2022-12-18T22:05:09.851Z,6.03
2022-12-18T22:07:37.551Z,8.00
2022-12-18T22:10:04.166Z,7.90
2022-12-18T22:12:43.600Z,7.10
2022-12-18T22:15:15.737Z,7.88
2022-12-18T22:17:48.241Z,7.40
2022-12-18T22:20:15.888Z,8.70
2022-12-18T22:22:42.313Z,8.10
2022-12-18T22:25:10.035Z,9.52
2022-12-18T22:27:36.958Z,7.35
2022-12-18T22:30:04.429Z,8.25
2022-12-18T22:32:32.539Z,7.78
2022-12-18T22:37:33.787Z,6.65
2022-12-18T22:40:02.819Z,5.93
2022-12-18T22:42:30.068Z,8.82
2022-12-18T22:44:56.453Z,8.10
2022-12-18T22:47:27.881Z,8.63
2022-12-18T22:49:55.994Z,8.48
2022-12-18T22:52:23.435Z,8.15
2022-12-18T22:54:51.429Z,7.32
2022-12-18T22:57:20.094Z,6.70
2022-12-18T22:59:46.433Z,8.85
2022-12-18T23:02:12.884Z,7.78
2022-12-18T23:04:39.824Z,8.13
2022-12-18T23:07:07.370Z,8.20
2022-12-18T23:09:34.405Z,6.80
2022-12-18T23:12:01.202Z,8.65
2022-12-18T23:14:28.449Z,8.60
2022-12-18T23:16:55.099Z,9.48
2022-12-18T23:19:21.573Z,8.70
2022-12-18T23:21:50.644Z,7.82
2022-12-18T23:24:17.117Z,8.73
2022-12-18T23:26:43.515Z,8.18
2022-12-18T23:29:09.986Z,9.20
2022-12-18T23:31:38.773Z,8.27
2022-12-18T23:34:06.871Z,9.23
2022-12-18T23:36:46.055Z,8.73
2022-12-18T23:39:28.571Z,9.15
2022-12-18T23:41:59.826Z,7.32
2022-12-18T23:44:26.467Z,9.15
2022-12-18T23:46:53.060Z,8.20
2022-12-18T23:49:19.509Z,8.98
2022-12-18T23:51:45.869Z,9.27
2022-12-18T23:54:12.243Z,8.73
2022-12-18T23:56:38.702Z,9.13
2022-12-18T23:59:05.067Z,8.50
